sensor_id;sensor_type;location;lat;lon;timestamp;P1;durP1;ratioP1;P2;durP2;ratioP2
39880;SDS011;25554;44.954;10.068;2023-03-05T00:00:43;20.00;;;10.98;;
39880;SDS011;25554;44.954;10.068;2023-03-05T00:03:10;18.55;;;10.85;;
39880;SDS011;25554;44.954;10.068;2023-03-05T00:05:36;19.27;;;11.48;;
39880;SDS011;25554;44.954;10.068;2023-03-05T00:08:03;21.88;;;11.73;;
39880;SDS011;25554;44.954;10.068;2023-03-05T00:10:30;24.67;;;12.30;;
39880;SDS011;25554;44.954;10.068;2023-03-05T00:12:56;19.38;;;10.88;;
39880;SDS011;25554;44.954;10.068;2023-03-05T00:15:23;21.60;;;11.90;;
39880;SDS011;25554;44.954;10.068;2023-03-05T00:17:49;19.92;;;11.07;;
39880;SDS011;25554;44.954;10.068;2023-03-05T00:20:16;21.77;;;11.32;;
39880;SDS011;25554;44.954;10.068;2023-03-05T00:22:43;20.25;;;11.13;;
39880;SDS011;25554;44.954;10.068;2023-03-05T00:25:09;19.23;;;11.52;;
39880;SDS011;25554;44.954;10.068;2023-03-05T00:27:36;19.95;;;10.95;;
39880;SDS011;25554;44.954;10.068;2023-03-05T00:30:02;19.70;;;11.10;;
39880;SDS011;25554;44.954;10.068;2023-03-05T00:32:29;20.33;;;10.57;;
39880;SDS011;25554;44.954;10.068;2023-03-05T00:34:55;24.38;;;11.27;;
39880;SDS011;25554;44.954;10.068;2023-03-05T00:37:22;21.50;;;10.70;;
39880;SDS011;25554;44.954;10.068;2023-03-05T00:39:48;22.23;;;11.20;;
39880;SDS011;25554;44.954;10.068;2023-03-05T00:42:15;20.95;;;11.10;;
39880;SDS011;25554;44.954;10.068;2023-03-05T00:44:42;19.70;;;10.63;;
39880;SDS011;25554;44.954;10.068;2023-03-05T00:47:09;22.75;;;11.45;;
39880;SDS011;25554;44.954;10.068;2023-03-05T00:49:36;18.73;;;10.85;;
39880;SDS011;25554;44.954;10.068;2023-03-05T00:52:02;21.08;;;11.35;;
39880;SDS011;25554;44.954;10.068;2023-03-05T00:54:29;23.42;;;12.23;;
39880;SDS011;25554;44.954;10.068;2023-03-05T00:56:56;21.35;;;12.02;;
39880;SDS011;25554;44.954;10.068;2023-03-05T00:59:22;19.77;;;11.32;;
39880;SDS011;25554;44.954;10.068;2023-03-05T01:01:49;20.40;;;11.35;;
39880;SDS011;25554;44.954;10.068;2023-03-05T01:04:15;20.10;;;11.40;;
39880;SDS011;25554;44.954;10.068;2023-03-05T01:06:41;19.88;;;11.48;;
39880;SDS011;25554;44.954;10.068;2023-03-05T01:09:12;18.00;;;10.32;;
39880;SDS011;25554;44.954;10.068;2023-03-05T01:11:39;21.80;;;12.38;;
39880;SDS011;25554;44.954;10.068;2023-03-05T01:14:05;21.50;;;10.98;;
39880;SDS011;25554;44.954;10.068;2023-03-05T01:16:32;19.65;;;11.55;;
39880;SDS011;25554;44.954;10.068;2023-03-05T01:18:58;21.35;;;11.60;;
39880;SDS011;25554;44.954;10.068;2023-03-05T01:21:32;20.13;;;11.27;;
39880;SDS011;25554;44.954;10.068;2023-03-05T01:24:02;21.42;;;11.40;;
39880;SDS011;25554;44.954;10.068;2023-03-05T01:26:29;22.38;;;11.48;;
39880;SDS011;25554;44.954;10.068;2023-03-05T01:28:56;21.40;;;10.95;;
39880;SDS011;25554;44.954;10.068;2023-03-05T01:31:24;21.02;;;11.02;;
39880;SDS011;25554;44.954;10.068;2023-03-05T01:33:51;28.30;;;11.95;;
39880;SDS011;25554;44.954;10.068;2023-03-05T01:36:24;22.27;;;12.25;;
39880;SDS011;25554;44.954;10.068;2023-03-05T01:38:51;27.40;;;12.18;;
39880;SDS011;25554;44.954;10.068;2023-03-05T01:41:19;21.38;;;12.55;;
39880;SDS011;25554;44.954;10.068;2023-03-05T01:43:46;23.15;;;12.32;;
39880;SDS011;25554;44.954;10.068;2023-03-05T01:52:04;22.63;;;12.40;;
39880;SDS011;25554;44.954;10.068;2023-03-05T01:54:35;21.80;;;12.18;;
39880;SDS011;25554;44.954;10.068;2023-03-05T01:57:06;21.27;;;11.50;;
39880;SDS011;25554;44.954;10.068;2023-03-05T01:59:37;21.85;;;11.85;;
39880;SDS011;25554;44.954;10.068;2023-03-05T02:02:06;23.30;;;11.57;;
39880;SDS011;25554;44.954;10.068;2023-03-05T02:04:36;22.23;;;11.40;;
39880;SDS011;25554;44.954;10.068;2023-03-05T02:07:11;26.80;;;12.15;;
39880;SDS011;25554;44.954;10.068;2023-03-05T02:09:38;29.23;;;12.40;;
39880;SDS011;25554;44.954;10.068;2023-03-05T02:12:06;25.40;;;13.75;;
39880;SDS011;25554;44.954;10.068;2023-03-05T02:14:33;25.20;;;14.82;;
39880;SDS011;25554;44.954;10.068;2023-03-05T02:17:00;25.95;;;14.48;;
39880;SDS011;25554;44.954;10.068;2023-03-05T02:19:27;28.77;;;13.93;;
39880;SDS011;25554;44.954;10.068;2023-03-05T02:21:54;21.77;;;12.18;;
39880;SDS011;25554;44.954;10.068;2023-03-05T02:24:36;25.23;;;13.10;;
39880;SDS011;25554;44.954;10.068;2023-03-05T02:27:02;22.92;;;13.52;;
39880;SDS011;25554;44.954;10.068;2023-03-05T02:29:29;25.08;;;15.43;;
39880;SDS011;25554;44.954;10.068;2023-03-05T02:31:57;25.35;;;14.55;;
39880;SDS011;25554;44.954;10.068;2023-03-05T02:34:24;24.83;;;12.75;;
39880;SDS011;25554;44.954;10.068;2023-03-05T02:36:51;25.50;;;12.40;;
39880;SDS011;25554;44.954;10.068;2023-03-05T02:39:21;24.48;;;12.63;;
39880;SDS011;25554;44.954;10.068;2023-03-05T02:41:48;30.10;;;13.75;;
39880;SDS011;25554;44.954;10.068;2023-03-05T02:44:14;25.45;;;13.13;;
39880;SDS011;25554;44.954;10.068;2023-03-05T02:46:41;25.90;;;13.63;;
39880;SDS011;25554;44.954;10.068;2023-03-05T02:49:08;27.40;;;14.13;;
39880;SDS011;25554;44.954;10.068;2023-03-05T02:51:35;22.92;;;13.00;;
39880;SDS011;25554;44.954;10.068;2023-03-05T02:54:02;19.27;;;11.30;;
39880;SDS011;25554;44.954;10.068;2023-03-05T02:56:29;21.67;;;11.93;;
39880;SDS011;25554;44.954;10.068;2023-03-05T02:58:55;23.75;;;11.43;;
39880;SDS011;25554;44.954;10.068;2023-03-05T03:01:22;19.38;;;11.15;;
39880;SDS011;25554;44.954;10.068;2023-03-05T03:03:48;20.17;;;11.48;;
39880;SDS011;25554;44.954;10.068;2023-03-05T03:06:15;22.10;;;10.82;;
39880;SDS011;25554;44.954;10.068;2023-03-05T03:08:41;20.75;;;11.55;;
39880;SDS011;25554;44.954;10.068;2023-03-05T03:11:09;27.45;;;13.55;;
39880;SDS011;25554;44.954;10.068;2023-03-05T03:13:37;27.70;;;14.23;;
39880;SDS011;25554;44.954;10.068;2023-03-05T03:16:04;28.52;;;14.82;;
39880;SDS011;25554;44.954;10.068;2023-03-05T03:18:36;25.15;;;13.48;;
39880;SDS011;25554;44.954;10.068;2023-03-05T03:21:03;28.25;;;14.52;;
39880;SDS011;25554;44.954;10.068;2023-03-05T03:23:30;37.05;;;14.68;;
39880;SDS011;25554;44.954;10.068;2023-03-05T03:25:56;23.83;;;13.30;;
39880;SDS011;25554;44.954;10.068;2023-03-05T03:28:23;24.67;;;13.77;;
39880;SDS011;25554;44.954;10.068;2023-03-05T03:30:50;25.27;;;13.10;;
39880;SDS011;25554;44.954;10.068;2023-03-05T03:33:16;26.23;;;14.10;;
39880;SDS011;25554;44.954;10.068;2023-03-05T03:35:44;28.10;;;14.13;;
39880;SDS011;25554;44.954;10.068;2023-03-05T03:38:11;24.60;;;13.45;;
39880;SDS011;25554;44.954;10.068;2023-03-05T03:40:39;21.90;;;13.38;;
39880;SDS011;25554;44.954;10.068;2023-03-05T03:43:06;23.88;;;13.90;;
39880;SDS011;25554;44.954;10.068;2023-03-05T03:45:33;26.60;;;13.77;;
39880;SDS011;25554;44.954;10.068;2023-03-05T03:47:59;23.83;;;13.40;;
39880;SDS011;25554;44.954;10.068;2023-03-05T03:50:26;24.02;;;13.95;;
39880;SDS011;25554;44.954;10.068;2023-03-05T03:52:52;26.80;;;13.70;;
39880;SDS011;25554;44.954;10.068;2023-03-05T03:55:19;26.88;;;14.35;;
39880;SDS011;25554;44.954;10.068;2023-03-05T03:57:45;27.77;;;15.43;;
39880;SDS011;25554;44.954;10.068;2023-03-05T04:00:12;31.50;;;14.85;;
39880;SDS011;25554;44.954;10.068;2023-03-05T04:02:38;23.92;;;13.88;;
39880;SDS011;25554;44.954;10.068;2023-03-05T04:05:05;24.42;;;13.35;;
39880;SDS011;25554;44.954;10.068;2023-03-05T04:07:32;27.15;;;12.82;;
39880;SDS011;25554;44.954;10.068;2023-03-05T04:09:58;27.50;;;13.18;;
39880;SDS011;25554;44.954;10.068;2023-03-05T04:12:25;19.95;;;11.88;;
39880;SDS011;25554;44.954;10.068;2023-03-05T04:14:51;25.15;;;12.88;;
39880;SDS011;25554;44.954;10.068;2023-03-05T04:17:18;20.77;;;11.65;;
39880;SDS011;25554;44.954;10.068;2023-03-05T04:19:44;26.85;;;12.95;;
39880;SDS011;25554;44.954;10.068;2023-03-05T04:22:12;23.83;;;12.93;;
39880;SDS011;25554;44.954;10.068;2023-03-05T04:24:40;23.95;;;12.15;;
39880;SDS011;25554;44.954;10.068;2023-03-05T04:27:06;23.25;;;11.75;;
39880;SDS011;25554;44.954;10.068;2023-03-05T04:29:33;16.63;;;10.48;;
39880;SDS011;25554;44.954;10.068;2023-03-05T04:32:00;22.90;;;11.32;;
39880;SDS011;25554;44.954;10.068;2023-03-05T04:34:26;24.55;;;11.30;;
39880;SDS011;25554;44.954;10.068;2023-03-05T04:39:19;22.45;;;11.45;;
39880;SDS011;25554;44.954;10.068;2023-03-05T04:44:14;20.02;;;10.68;;
39880;SDS011;25554;44.954;10.068;2023-03-05T04:46:42;20.42;;;11.13;;
39880;SDS011;25554;44.954;10.068;2023-03-05T04:49:09;21.35;;;11.75;;
39880;SDS011;25554;44.954;10.068;2023-03-05T04:51:35;21.55;;;11.90;;
39880;SDS011;25554;44.954;10.068;2023-03-05T04:54:01;23.42;;;13.48;;
39880;SDS011;25554;44.954;10.068;2023-03-05T04:56:28;22.25;;;12.35;;
39880;SDS011;25554;44.954;10.068;2023-03-05T04:58:54;23.70;;;12.75;;
39880;SDS011;25554;44.954;10.068;2023-03-05T05:01:21;25.30;;;13.13;;
39880;SDS011;25554;44.954;10.068;2023-03-05T05:03:48;24.95;;;12.43;;
39880;SDS011;25554;44.954;10.068;2023-03-05T05:06:14;19.88;;;11.23;;
39880;SDS011;25554;44.954;10.068;2023-03-05T05:08:41;20.60;;;11.35;;
39880;SDS011;25554;44.954;10.068;2023-03-05T05:11:10;23.83;;;12.45;;
39880;SDS011;25554;44.954;10.068;2023-03-05T05:13:39;19.90;;;10.48;;
39880;SDS011;25554;44.954;10.068;2023-03-05T05:16:06;23.02;;;11.73;;
39880;SDS011;25554;44.954;10.068;2023-03-05T05:18:33;22.85;;;12.63;;
39880;SDS011;25554;44.954;10.068;2023-03-05T05:21:00;20.48;;;10.43;;
39880;SDS011;25554;44.954;10.068;2023-03-05T05:23:27;16.15;;;9.07;;
39880;SDS011;25554;44.954;10.068;2023-03-05T05:25:54;15.52;;;9.15;;
39880;SDS011;25554;44.954;10.068;2023-03-05T05:28:25;20.52;;;9.05;;
39880;SDS011;25554;44.954;10.068;2023-03-05T05:30:54;17.45;;;8.80;;
39880;SDS011;25554;44.954;10.068;2023-03-05T05:33:21;23.73;;;9.55;;
39880;SDS011;25554;44.954;10.068;2023-03-05T05:35:48;23.02;;;9.90;;
39880;SDS011;25554;44.954;10.068;2023-03-05T05:38:15;15.57;;;8.50;;
39880;SDS011;25554;44.954;10.068;2023-03-05T05:40:42;15.05;;;8.48;;
39880;SDS011;25554;44.954;10.068;2023-03-05T05:43:11;15.30;;;7.90;;
39880;SDS011;25554;44.954;10.068;2023-03-05T05:45:39;20.70;;;8.50;;
39880;SDS011;25554;44.954;10.068;2023-03-05T05:48:06;18.92;;;8.13;;
39880;SDS011;25554;44.954;10.068;2023-03-05T05:50:32;22.95;;;8.23;;
39880;SDS011;25554;44.954;10.068;2023-03-05T05:52:59;19.17;;;9.40;;
39880;SDS011;25554;44.954;10.068;2023-03-05T05:55:26;21.83;;;9.80;;
39880;SDS011;25554;44.954;10.068;2023-03-05T05:57:52;21.70;;;10.55;;
39880;SDS011;25554;44.954;10.068;2023-03-05T06:00:19;15.82;;;9.50;;
39880;SDS011;25554;44.954;10.068;2023-03-05T06:02:45;18.15;;;9.85;;
39880;SDS011;25554;44.954;10.068;2023-03-05T06:05:12;20.00;;;10.70;;
39880;SDS011;25554;44.954;10.068;2023-03-05T06:07:39;18.30;;;9.18;;
39880;SDS011;25554;44.954;10.068;2023-03-05T06:10:06;16.17;;;9.02;;
39880;SDS011;25554;44.954;10.068;2023-03-05T06:12:34;20.48;;;10.18;;
39880;SDS011;25554;44.954;10.068;2023-03-05T06:15:01;18.83;;;9.88;;
39880;SDS011;25554;44.954;10.068;2023-03-05T06:17:27;18.60;;;9.90;;
39880;SDS011;25554;44.954;10.068;2023-03-05T06:19:54;17.40;;;9.82;;
39880;SDS011;25554;44.954;10.068;2023-03-05T06:22:20;17.75;;;10.30;;
39880;SDS011;25554;44.954;10.068;2023-03-05T06:24:47;20.33;;;10.77;;
39880;SDS011;25554;44.954;10.068;2023-03-05T06:27:13;19.08;;;10.07;;
39880;SDS011;25554;44.954;10.068;2023-03-05T06:29:40;16.92;;;9.80;;
39880;SDS011;25554;44.954;10.068;2023-03-05T06:32:07;16.42;;;9.00;;
39880;SDS011;25554;44.954;10.068;2023-03-05T06:34:33;14.38;;;7.72;;
39880;SDS011;25554;44.954;10.068;2023-03-05T06:37:00;17.92;;;8.57;;
39880;SDS011;25554;44.954;10.068;2023-03-05T06:39:27;13.98;;;7.22;;
39880;SDS011;25554;44.954;10.068;2023-03-05T06:41:55;12.75;;;8.38;;
39880;SDS011;25554;44.954;10.068;2023-03-05T06:44:22;16.38;;;8.27;;
39880;SDS011;25554;44.954;10.068;2023-03-05T06:46:56;14.45;;;8.30;;
39880;SDS011;25554;44.954;10.068;2023-03-05T06:49:23;17.02;;;8.45;;
39880;SDS011;25554;44.954;10.068;2023-03-05T06:51:49;12.73;;;8.18;;
39880;SDS011;25554;44.954;10.068;2023-03-05T06:54:16;13.23;;;7.85;;
39880;SDS011;25554;44.954;10.068;2023-03-05T06:56:43;15.90;;;8.88;;
39880;SDS011;25554;44.954;10.068;2023-03-05T06:59:11;14.20;;;8.40;;
39880;SDS011;25554;44.954;10.068;2023-03-05T07:01:39;13.18;;;7.85;;
39880;SDS011;25554;44.954;10.068;2023-03-05T07:04:06;14.55;;;8.30;;
39880;SDS011;25554;44.954;10.068;2023-03-05T07:06:34;14.30;;;8.18;;
39880;SDS011;25554;44.954;10.068;2023-03-05T07:09:03;14.13;;;8.32;;
39880;SDS011;25554;44.954;10.068;2023-03-05T07:11:32;19.80;;;9.32;;
39880;SDS011;25554;44.954;10.068;2023-03-05T07:14:02;14.82;;;8.05;;
39880;SDS011;25554;44.954;10.068;2023-03-05T07:16:31;18.33;;;9.25;;
39880;SDS011;25554;44.954;10.068;2023-03-05T07:19:03;18.08;;;8.57;;
39880;SDS011;25554;44.954;10.068;2023-03-05T07:21:32;16.83;;;8.55;;
39880;SDS011;25554;44.954;10.068;2023-03-05T07:24:01;17.90;;;7.68;;
39880;SDS011;25554;44.954;10.068;2023-03-05T07:26:30;14.77;;;7.40;;
39880;SDS011;25554;44.954;10.068;2023-03-05T07:28:58;13.40;;;7.18;;
39880;SDS011;25554;44.954;10.068;2023-03-05T07:31:26;15.70;;;7.45;;
39880;SDS011;25554;44.954;10.068;2023-03-05T07:33:55;14.88;;;7.72;;
39880;SDS011;25554;44.954;10.068;2023-03-05T07:36:25;14.75;;;6.72;;
39880;SDS011;25554;44.954;10.068;2023-03-05T07:38:52;8.82;;;5.80;;
39880;SDS011;25554;44.954;10.068;2023-03-05T07:41:21;11.88;;;5.75;;
39880;SDS011;25554;44.954;10.068;2023-03-05T07:43:49;8.48;;;6.00;;
39880;SDS011;25554;44.954;10.068;2023-03-05T07:46:17;9.38;;;5.00;;
39880;SDS011;25554;44.954;10.068;2023-03-05T07:48:47;8.20;;;5.28;;
39880;SDS011;25554;44.954;10.068;2023-03-05T07:51:15;11.10;;;4.85;;
39880;SDS011;25554;44.954;10.068;2023-03-05T07:53:43;9.18;;;4.90;;
39880;SDS011;25554;44.954;10.068;2023-03-05T07:56:12;7.93;;;5.47;;
39880;SDS011;25554;44.954;10.068;2023-03-05T07:58:38;10.93;;;5.93;;
39880;SDS011;25554;44.954;10.068;2023-03-05T08:01:09;12.10;;;5.78;;
39880;SDS011;25554;44.954;10.068;2023-03-05T08:03:42;8.80;;;5.28;;
39880;SDS011;25554;44.954;10.068;2023-03-05T08:06:09;10.90;;;6.07;;
39880;SDS011;25554;44.954;10.068;2023-03-05T08:08:37;9.70;;;5.63;;
39880;SDS011;25554;44.954;10.068;2023-03-05T08:11:07;10.77;;;5.50;;
39880;SDS011;25554;44.954;10.068;2023-03-05T08:13:35;10.18;;;5.50;;
39880;SDS011;25554;44.954;10.068;2023-03-05T08:16:06;12.27;;;5.90;;
39880;SDS011;25554;44.954;10.068;2023-03-05T08:18:34;10.68;;;6.38;;
39880;SDS011;25554;44.954;10.068;2023-03-05T08:21:00;14.05;;;8.68;;
39880;SDS011;25554;44.954;10.068;2023-03-05T08:23:27;14.63;;;7.97;;
39880;SDS011;25554;44.954;10.068;2023-03-05T08:25:54;14.65;;;6.82;;
39880;SDS011;25554;44.954;10.068;2023-03-05T08:28:21;22.58;;;7.22;;
39880;SDS011;25554;44.954;10.068;2023-03-05T08:30:48;14.55;;;7.50;;
39880;SDS011;25554;44.954;10.068;2023-03-05T08:33:15;16.52;;;7.68;;
39880;SDS011;25554;44.954;10.068;2023-03-05T08:35:44;11.57;;;7.50;;
39880;SDS011;25554;44.954;10.068;2023-03-05T08:40:37;16.55;;;6.82;;
39880;SDS011;25554;44.954;10.068;2023-03-05T08:43:03;14.20;;;7.32;;
39880;SDS011;25554;44.954;10.068;2023-03-05T08:45:31;12.05;;;7.13;;
39880;SDS011;25554;44.954;10.068;2023-03-05T08:47:58;14.45;;;7.43;;
39880;SDS011;25554;44.954;10.068;2023-03-05T08:52:50;12.32;;;7.07;;
39880;SDS011;25554;44.954;10.068;2023-03-05T08:55:17;11.90;;;7.88;;
39880;SDS011;25554;44.954;10.068;2023-03-05T08:57:44;13.88;;;7.40;;
39880;SDS011;25554;44.954;10.068;2023-03-05T09:02:37;16.77;;;8.63;;
39880;SDS011;25554;44.954;10.068;2023-03-05T09:05:04;15.43;;;10.10;;
39880;SDS011;25554;44.954;10.068;2023-03-05T09:07:31;15.93;;;10.15;;
39880;SDS011;25554;44.954;10.068;2023-03-05T09:10:00;20.70;;;10.75;;
39880;SDS011;25554;44.954;10.068;2023-03-05T09:12:27;19.52;;;10.98;;
39880;SDS011;25554;44.954;10.068;2023-03-05T09:17:20;17.35;;;10.88;;
39880;SDS011;25554;44.954;10.068;2023-03-05T09:19:47;19.92;;;11.15;;
39880;SDS011;25554;44.954;10.068;2023-03-05T09:24:40;15.43;;;11.43;;
39880;SDS011;25554;44.954;10.068;2023-03-05T09:27:09;20.70;;;12.02;;
39880;SDS011;25554;44.954;10.068;2023-03-05T09:29:36;19.83;;;13.35;;
39880;SDS011;25554;44.954;10.068;2023-03-05T09:34:39;27.33;;;16.58;;
39880;SDS011;25554;44.954;10.068;2023-03-05T09:37:14;26.67;;;17.63;;
39880;SDS011;25554;44.954;10.068;2023-03-05T09:39:41;32.22;;;20.83;;
39880;SDS011;25554;44.954;10.068;2023-03-05T09:58:24;35.67;;;20.95;;
39880;SDS011;25554;44.954;10.068;2023-03-05T10:01:09;33.40;;;22.50;;
39880;SDS011;25554;44.954;10.068;2023-03-05T10:03:46;39.60;;;22.98;;
39880;SDS011;25554;44.954;10.068;2023-03-05T10:06:28;36.50;;;22.63;;
39880;SDS011;25554;44.954;10.068;2023-03-05T10:12:17;41.10;;;24.80;;
39880;SDS011;25554;44.954;10.068;2023-03-05T10:14:52;43.85;;;25.20;;
39880;SDS011;25554;44.954;10.068;2023-03-05T10:20:28;40.35;;;24.50;;
39880;SDS011;25554;44.954;10.068;2023-03-05T10:28:09;47.15;;;24.10;;
39880;SDS011;25554;44.954;10.068;2023-03-05T10:33:42;41.70;;;25.08;;
39880;SDS011;25554;44.954;10.068;2023-03-05T10:42:20;36.03;;;22.70;;
39880;SDS011;25554;44.954;10.068;2023-03-05T10:45:01;42.10;;;24.63;;
39880;SDS011;25554;44.954;10.068;2023-03-05T10:50:20;35.25;;;22.10;;
39880;SDS011;25554;44.954;10.068;2023-03-05T10:52:54;37.10;;;21.95;;
39880;SDS011;25554;44.954;10.068;2023-03-05T10:55:38;36.88;;;22.85;;
39880;SDS011;25554;44.954;10.068;2023-03-05T10:58:12;37.58;;;22.33;;
39880;SDS011;25554;44.954;10.068;2023-03-05T11:00:56;37.05;;;21.70;;
39880;SDS011;25554;44.954;10.068;2023-03-05T11:03:54;30.73;;;19.75;;
39880;SDS011;25554;44.954;10.068;2023-03-05T11:06:28;36.72;;;20.67;;
39880;SDS011;25554;44.954;10.068;2023-03-05T11:09:14;33.28;;;20.75;;
39880;SDS011;25554;44.954;10.068;2023-03-05T11:17:47;29.73;;;19.05;;
39880;SDS011;25554;44.954;10.068;2023-03-05T11:23:13;33.42;;;19.70;;
39880;SDS011;25554;44.954;10.068;2023-03-05T11:28:31;31.00;;;19.15;;
39880;SDS011;25554;44.954;10.068;2023-03-05T11:36:33;31.77;;;18.63;;
39880;SDS011;25554;44.954;10.068;2023-03-05T11:44:23;33.38;;;19.48;;
39880;SDS011;25554;44.954;10.068;2023-03-05T11:46:51;31.60;;;20.15;;
39880;SDS011;25554;44.954;10.068;2023-03-05T11:49:24;34.15;;;20.63;;
39880;SDS011;25554;44.954;10.068;2023-03-05T11:55:04;29.45;;;19.88;;
39880;SDS011;25554;44.954;10.068;2023-03-05T12:00:42;36.80;;;22.48;;
39880;SDS011;25554;44.954;10.068;2023-03-05T12:03:11;40.38;;;22.80;;
39880;SDS011;25554;44.954;10.068;2023-03-05T12:05:44;40.00;;;23.45;;
39880;SDS011;25554;44.954;10.068;2023-03-05T12:08:17;42.40;;;25.40;;
39880;SDS011;25554;44.954;10.068;2023-03-05T12:10:50;40.42;;;22.95;;
39880;SDS011;25554;44.954;10.068;2023-03-05T12:13:28;36.60;;;22.48;;
39880;SDS011;25554;44.954;10.068;2023-03-05T12:18:59;47.30;;;30.30;;
39880;SDS011;25554;44.954;10.068;2023-03-05T12:21:55;41.20;;;24.40;;
39880;SDS011;25554;44.954;10.068;2023-03-05T12:47:37;46.30;;;28.25;;
39880;SDS011;25554;44.954;10.068;2023-03-05T12:50:04;46.80;;;29.63;;
39880;SDS011;25554;44.954;10.068;2023-03-05T12:52:55;45.63;;;29.97;;
39880;SDS011;25554;44.954;10.068;2023-03-05T13:03:31;46.40;;;28.30;;
39880;SDS011;25554;44.954;10.068;2023-03-05T13:05:58;47.67;;;27.42;;
39880;SDS011;25554;44.954;10.068;2023-03-05T13:08:29;43.08;;;25.92;;
39880;SDS011;25554;44.954;10.068;2023-03-05T13:15:51;42.83;;;26.23;;
39880;SDS011;25554;44.954;10.068;2023-03-05T13:20:44;44.75;;;27.23;;
39880;SDS011;25554;44.954;10.068;2023-03-05T13:25:56;44.58;;;25.67;;
39880;SDS011;25554;44.954;10.068;2023-03-05T13:28:22;37.65;;;24.95;;
39880;SDS011;25554;44.954;10.068;2023-03-05T13:30:53;45.08;;;27.17;;
39880;SDS011;25554;44.954;10.068;2023-03-05T13:33:29;45.63;;;30.00;;
39880;SDS011;25554;44.954;10.068;2023-03-05T13:36:00;45.03;;;26.77;;
39880;SDS011;25554;44.954;10.068;2023-03-05T13:41:03;37.22;;;23.85;;
39880;SDS011;25554;44.954;10.068;2023-03-05T13:43:30;40.20;;;24.13;;
39880;SDS011;25554;44.954;10.068;2023-03-05T13:45:57;39.13;;;23.02;;
39880;SDS011;25554;44.954;10.068;2023-03-05T13:48:25;42.17;;;25.00;;
39880;SDS011;25554;44.954;10.068;2023-03-05T13:50:56;45.40;;;25.80;;
39880;SDS011;25554;44.954;10.068;2023-03-05T13:53:28;43.70;;;27.27;;
39880;SDS011;25554;44.954;10.068;2023-03-05T13:55:56;39.97;;;26.48;;
39880;SDS011;25554;44.954;10.068;2023-03-05T14:01:25;45.58;;;27.63;;
39880;SDS011;25554;44.954;10.068;2023-03-05T14:03:57;43.60;;;26.60;;
39880;SDS011;25554;44.954;10.068;2023-03-05T14:06:28;40.60;;;25.58;;
39880;SDS011;25554;44.954;10.068;2023-03-05T14:09:01;42.03;;;25.42;;
39880;SDS011;25554;44.954;10.068;2023-03-05T14:11:41;41.88;;;25.25;;
39880;SDS011;25554;44.954;10.068;2023-03-05T14:14:12;38.72;;;23.90;;
39880;SDS011;25554;44.954;10.068;2023-03-05T14:16:42;45.30;;;26.25;;
39880;SDS011;25554;44.954;10.068;2023-03-05T14:19:31;39.28;;;24.10;;
39880;SDS011;25554;44.954;10.068;2023-03-05T14:21:59;38.70;;;24.92;;
39880;SDS011;25554;44.954;10.068;2023-03-05T14:24:26;36.08;;;24.23;;
39880;SDS011;25554;44.954;10.068;2023-03-05T14:27:02;36.13;;;23.45;;
39880;SDS011;25554;44.954;10.068;2023-03-05T14:29:32;39.88;;;25.40;;
39880;SDS011;25554;44.954;10.068;2023-03-05T14:34:33;41.70;;;25.23;;
39880;SDS011;25554;44.954;10.068;2023-03-05T14:37:22;44.75;;;25.63;;
39880;SDS011;25554;44.954;10.068;2023-03-05T14:40:06;45.83;;;24.50;;
39880;SDS011;25554;44.954;10.068;2023-03-05T14:45:17;40.40;;;24.73;;
39880;SDS011;25554;44.954;10.068;2023-03-05T14:47:45;39.00;;;24.60;;
39880;SDS011;25554;44.954;10.068;2023-03-05T14:50:16;38.10;;;26.10;;
39880;SDS011;25554;44.954;10.068;2023-03-05T14:52:48;39.17;;;24.52;;
39880;SDS011;25554;44.954;10.068;2023-03-05T14:55:19;39.90;;;24.77;;
39880;SDS011;25554;44.954;10.068;2023-03-05T14:57:48;41.03;;;24.98;;
39880;SDS011;25554;44.954;10.068;2023-03-05T15:00:20;40.45;;;25.10;;
39880;SDS011;25554;44.954;10.068;2023-03-05T15:02:49;40.80;;;24.48;;
39880;SDS011;25554;44.954;10.068;2023-03-05T15:07:42;34.93;;;22.10;;
39880;SDS011;25554;44.954;10.068;2023-03-05T15:10:13;35.20;;;22.75;;
39880;SDS011;25554;44.954;10.068;2023-03-05T15:12:42;37.55;;;24.35;;
39880;SDS011;25554;44.954;10.068;2023-03-05T15:15:12;38.70;;;23.48;;
39880;SDS011;25554;44.954;10.068;2023-03-05T15:17:40;34.00;;;21.35;;
39880;SDS011;25554;44.954;10.068;2023-03-05T15:20:16;37.72;;;23.27;;
39880;SDS011;25554;44.954;10.068;2023-03-05T15:22:44;40.78;;;24.48;;
39880;SDS011;25554;44.954;10.068;2023-03-05T15:25:11;38.75;;;24.00;;
39880;SDS011;25554;44.954;10.068;2023-03-05T15:27:38;40.28;;;25.25;;
39880;SDS011;25554;44.954;10.068;2023-03-05T15:30:05;36.92;;;22.92;;
39880;SDS011;25554;44.954;10.068;2023-03-05T15:32:34;41.10;;;24.30;;
39880;SDS011;25554;44.954;10.068;2023-03-05T15:35:00;38.45;;;23.92;;
39880;SDS011;25554;44.954;10.068;2023-03-05T15:37:27;36.22;;;22.73;;
39880;SDS011;25554;44.954;10.068;2023-03-05T15:39:57;44.97;;;23.75;;
39880;SDS011;25554;44.954;10.068;2023-03-05T15:42:23;36.42;;;22.67;;
39880;SDS011;25554;44.954;10.068;2023-03-05T15:47:16;40.13;;;23.27;;
39880;SDS011;25554;44.954;10.068;2023-03-05T15:52:09;39.72;;;23.23;;
39880;SDS011;25554;44.954;10.068;2023-03-05T15:54:35;42.30;;;23.77;;
39880;SDS011;25554;44.954;10.068;2023-03-05T15:59:32;42.80;;;23.85;;
39880;SDS011;25554;44.954;10.068;2023-03-05T16:04:26;40.75;;;22.75;;
39880;SDS011;25554;44.954;10.068;2023-03-05T16:06:53;38.08;;;23.52;;
39880;SDS011;25554;44.954;10.068;2023-03-05T16:09:24;42.55;;;23.73;;
39880;SDS011;25554;44.954;10.068;2023-03-05T16:11:54;40.25;;;23.90;;
39880;SDS011;25554;44.954;10.068;2023-03-05T16:16:49;38.42;;;21.80;;
39880;SDS011;25554;44.954;10.068;2023-03-05T16:19:17;37.97;;;23.27;;
39880;SDS011;25554;44.954;10.068;2023-03-05T16:21:45;38.22;;;22.83;;
39880;SDS011;25554;44.954;10.068;2023-03-05T16:24:11;40.67;;;24.00;;
39880;SDS011;25554;44.954;10.068;2023-03-05T16:26:39;37.67;;;24.45;;
39880;SDS011;25554;44.954;10.068;2023-03-05T16:29:06;41.25;;;23.88;;
39880;SDS011;25554;44.954;10.068;2023-03-05T16:34:00;39.47;;;23.83;;
39880;SDS011;25554;44.954;10.068;2023-03-05T16:36:27;43.53;;;24.60;;
39880;SDS011;25554;44.954;10.068;2023-03-05T16:38:56;47.47;;;25.30;;
39880;SDS011;25554;44.954;10.068;2023-03-05T16:41:24;39.92;;;22.55;;
39880;SDS011;25554;44.954;10.068;2023-03-05T16:43:52;39.92;;;23.92;;
39880;SDS011;25554;44.954;10.068;2023-03-05T16:46:21;44.08;;;25.23;;
39880;SDS011;25554;44.954;10.068;2023-03-05T16:48:49;43.80;;;23.42;;
39880;SDS011;25554;44.954;10.068;2023-03-05T16:51:18;38.72;;;24.35;;
39880;SDS011;25554;44.954;10.068;2023-03-05T16:53:48;41.97;;;24.40;;
39880;SDS011;25554;44.954;10.068;2023-03-05T16:56:15;43.65;;;25.42;;
39880;SDS011;25554;44.954;10.068;2023-03-05T16:58:42;44.10;;;24.83;;
39880;SDS011;25554;44.954;10.068;2023-03-05T17:01:16;41.83;;;22.75;;
39880;SDS011;25554;44.954;10.068;2023-03-05T17:03:44;43.58;;;23.73;;
39880;SDS011;25554;44.954;10.068;2023-03-05T17:06:21;41.78;;;23.52;;